Chase, MI

4:32 AM EDT on October 17, 2019 (GMT -0400)
Baldwin | | Change Station
Active Advisory: Frost Advisory

Elev 896 ft 43.91 °N, 85.88 °W | Updated 16 seconds ago

Overcast
Overcast
40.5 °F
Feels Like 40 °F
N
0.9
Wind Variable Wind from SW
Gusts 1.1 mph

Today
High -- | Low -- °F
--% Chance of Precip.
Yesterday
High -- | Low -- °F
Precip. -- in
Pressure 29.89 in
Visibility 10.0 miles
Clouds Mostly Cloudy 2000 ft
Overcast 2600 ft
Windchill 40 °F
Dew Point 39 °F
Humidity 95%
Rainfall 0.00 in
Snow Depth Not available.
7:59 AM 6:55 PM
Waning Gibbous, 89% visible
METAR KRQB 170816Z AUTO 31004KT 10SM BKN020 OVC026 05/03 A2989 RMK AO2 T00500030
Pressure 29.89 in
Visibility 10.0 miles
Clouds Mostly Cloudy 2000 ft
Overcast 2600 ft
Windchill 40 °F
Dew Point 39 °F
Humidity 95%
Rainfall 0.00 in
Snow Depth Not available.
7:59 AM 6:55 PM
Waning Gibbous, 89% visible
METAR KRQB 170816Z AUTO 31004KT 10SM BKN020 OVC026 05/03 A2989 RMK AO2 T00500030

Get Your Daily Forecast Email!

Thanks for signing up!

Be on the lookout for a verification email in your inbox.

You'll start receiving severe weather alerts in your inbox..

×

10-Day Weather Forecast

Almanac

Astronomy

Oct. 17, 2019 Rise Set
Actual Time
Civil Twilight
Nautical Twilight
Astronomical Twilight
Moon
Length of Visible Light
Length of Day
Tomorrow will be .
, % of the Moon is Illuminated

Today's Extremes

State Highs State Lows

Community

WunderPhotos

Category 6

Welcome to Category 6. This is the collective home for Weather Underground's featured writeups by Dr. Jeff Masters (right), Bob Henson (left), Chris Burt, and other regular contributors.

Nearby

Air Quality

  Air Quality AQ Index Pollutant
Not available.

Snow Depth

Station Depth Elevation

Earthquake Activity

City Distance Mag. Time & Date
Minimum magnitude displayed is 2.5.

Coastal Water Temperatures

Place Temperature

Stations

Nearby Weather Stations

Station Location Temp. Windchill Dew Point Humidity Wind Precip. Elev Updated Type
                   

Watches & Warnings

Frost Advisory
Issued: 3:25 AM EDT Oct. 17, 2019 – National Weather Service

... Frost advisory in effect from 8 PM this evening to 8 am EDT
Friday...

The National Weather Service in Grand Rapids has issued a frost
advisory... which is in effect from 8 PM this evening to 8 am EDT
Friday.

Hazardous weather...

* low temperatures of 30 to 35 degrees are expected away from the
   Lakeshore

Impacts...

* a widespread frost is expected with some freeze conditions
   possible especially east of US 131

* late-season crops not harvested prior to Friday morning may be
   damaged or killed.


Precautionary/preparedness actions...

* a frost advisory is issued when frost is expected to develop
during the growing season. Those with agricultural interests in
the advised area are advised to harvest or protect tender
vegetation. Also... potted plants normally left outdoors should be
covered or brought inside away from the cold.